sensor_id;sensor_type;location;lat;lon;timestamp;pressure;altitude;pressure_sealevel;temperature;humidity
26865;BME280;40618;51.166;10.322;2023-07-31T00:00:27;97102.91;;;15.81;66.12
26865;BME280;40618;51.166;10.322;2023-07-31T00:02:54;97101.25;;;15.80;66.16
26865;BME280;40618;51.166;10.322;2023-07-31T00:05:20;97093.53;;;15.77;65.87
26865;BME280;40618;51.166;10.322;2023-07-31T00:07:46;97091.88;;;15.76;66.20
26865;BME280;40618;51.166;10.322;2023-07-31T00:10:11;97087.56;;;15.75;66.74
26865;BME280;40618;51.166;10.322;2023-07-31T00:12:38;97092.88;;;15.73;66.51
26865;BME280;40618;51.166;10.322;2023-07-31T00:15:06;97085.78;;;15.76;66.67
26865;BME280;40618;51.166;10.322;2023-07-31T00:17:32;97084.88;;;15.77;66.53
26865;BME280;40618;51.166;10.322;2023-07-31T00:19:58;97082.69;;;15.69;66.62
26865;BME280;40618;51.166;10.322;2023-07-31T00:22:23;97079.56;;;15.62;67.09
26865;BME280;40618;51.166;10.322;2023-07-31T00:24:49;97069.09;;;15.48;67.11
26865;BME280;40618;51.166;10.322;2023-07-31T00:27:15;97070.19;;;15.44;67.63
26865;BME280;40618;51.166;10.322;2023-07-31T00:29:40;97075.91;;;15.34;67.43
26865;BME280;40618;51.166;10.322;2023-07-31T00:32:07;97069.59;;;15.22;68.07
26865;BME280;40618;51.166;10.322;2023-07-31T00:34:32;97069.53;;;15.24;68.24
26865;BME280;40618;51.166;10.322;2023-07-31T00:36:58;97069.59;;;15.22;67.90
26865;BME280;40618;51.166;10.322;2023-07-31T00:39:24;97064.06;;;15.29;68.35
26865;BME280;40618;51.166;10.322;2023-07-31T00:41:49;97060.09;;;15.37;68.28
26865;BME280;40618;51.166;10.322;2023-07-31T00:44:15;97059.84;;;15.42;68.43
26865;BME280;40618;51.166;10.322;2023-07-31T00:46:40;97059.06;;;15.40;68.32
26865;BME280;40618;51.166;10.322;2023-07-31T00:49:07;97054.97;;;15.36;68.48
26865;BME280;40618;51.166;10.322;2023-07-31T00:51:33;97054.13;;;15.35;68.87
26865;BME280;40618;51.166;10.322;2023-07-31T00:54:00;97047.91;;;15.38;68.65
26865;BME280;40618;51.166;10.322;2023-07-31T00:56:27;97045.84;;;15.43;68.99
26865;BME280;40618;51.166;10.322;2023-07-31T00:58:55;97047.34;;;15.47;69.10
26865;BME280;40618;51.166;10.322;2023-07-31T01:01:21;97042.09;;;15.49;68.76
26865;BME280;40618;51.166;10.322;2023-07-31T01:03:47;97035.41;;;15.43;68.72
26865;BME280;40618;51.166;10.322;2023-07-31T01:06:37;97031.97;;;15.43;69.22
26865;BME280;40618;51.166;10.322;2023-07-31T01:09:45;97031.88;;;15.44;68.81
26865;BME280;40618;51.166;10.322;2023-07-31T01:12:19;97022.22;;;15.46;69.07
26865;BME280;40618;51.166;10.322;2023-07-31T01:17:30;97023.88;;;15.47;69.09
26865;BME280;40618;51.166;10.322;2023-07-31T01:19:59;97017.91;;;15.45;68.99
26865;BME280;40618;51.166;10.322;2023-07-31T01:31:07;96997.06;;;15.29;69.60
26865;BME280;40618;51.166;10.322;2023-07-31T01:33:36;96994.72;;;15.25;69.67
26865;BME280;40618;51.166;10.322;2023-07-31T01:36:03;96992.13;;;15.25;69.87
26865;BME280;40618;51.166;10.322;2023-07-31T01:38:29;96991.28;;;15.24;69.78
26865;BME280;40618;51.166;10.322;2023-07-31T01:40:55;96987.19;;;15.20;69.59
26865;BME280;40618;51.166;10.322;2023-07-31T01:43:20;96980.41;;;15.16;69.82
26865;BME280;40618;51.166;10.322;2023-07-31T01:45:46;96989.19;;;15.15;70.10
26865;BME280;40618;51.166;10.322;2023-07-31T01:48:11;96973.63;;;15.13;70.10
26865;BME280;40618;51.166;10.322;2023-07-31T01:50:37;96976.25;;;15.13;70.01
26865;BME280;40618;51.166;10.322;2023-07-31T01:53:02;96980.88;;;15.08;70.04
26865;BME280;40618;51.166;10.322;2023-07-31T01:55:28;96980.88;;;15.08;70.12
26865;BME280;40618;51.166;10.322;2023-07-31T01:57:54;96980.19;;;15.04;70.11
26865;BME280;40618;51.166;10.322;2023-07-31T02:00:19;96983.72;;;15.03;70.20
26865;BME280;40618;51.166;10.322;2023-07-31T02:02:45;96990.03;;;14.99;70.69
26865;BME280;40618;51.166;10.322;2023-07-31T02:05:10;96991.91;;;14.97;70.58
26865;BME280;40618;51.166;10.322;2023-07-31T02:07:36;96981.56;;;14.96;70.63
26865;BME280;40618;51.166;10.322;2023-07-31T02:10:02;96979.03;;;14.94;70.21
26865;BME280;40618;51.166;10.322;2023-07-31T02:12:27;96974.25;;;14.86;70.50
26865;BME280;40618;51.166;10.322;2023-07-31T02:14:56;96974.75;;;14.77;70.84
26865;BME280;40618;51.166;10.322;2023-07-31T02:17:21;96963.81;;;14.70;71.11
26865;BME280;40618;51.166;10.322;2023-07-31T02:19:48;96965.31;;;14.75;71.18
26865;BME280;40618;51.166;10.322;2023-07-31T02:22:13;96966.41;;;14.70;70.87
26865;BME280;40618;51.166;10.322;2023-07-31T02:24:39;96973.22;;;14.73;71.16
26865;BME280;40618;51.166;10.322;2023-07-31T02:27:05;96961.09;;;14.72;71.43
26865;BME280;40618;51.166;10.322;2023-07-31T02:29:30;96963.56;;;14.75;71.45
26865;BME280;40618;51.166;10.322;2023-07-31T02:31:56;96957.25;;;14.79;71.53
26865;BME280;40618;51.166;10.322;2023-07-31T02:34:21;96957.19;;;14.81;71.17
26865;BME280;40618;51.166;10.322;2023-07-31T02:36:47;96965.69;;;14.84;71.27
26865;BME280;40618;51.166;10.322;2023-07-31T02:39:13;96961.38;;;14.83;71.48
26865;BME280;40618;51.166;10.322;2023-07-31T02:41:38;96961.53;;;14.80;71.47
26865;BME280;40618;51.166;10.322;2023-07-31T02:44:04;96957.25;;;14.79;71.30
26865;BME280;40618;51.166;10.322;2023-07-31T02:46:29;96950.19;;;14.81;71.71
26865;BME280;40618;51.166;10.322;2023-07-31T02:48:55;96950.97;;;14.83;71.72
26865;BME280;40618;51.166;10.322;2023-07-31T02:51:20;96950.19;;;14.81;71.73
26865;BME280;40618;51.166;10.322;2023-07-31T02:53:47;96950.09;;;14.83;71.72
26865;BME280;40618;51.166;10.322;2023-07-31T02:56:13;96950.88;;;14.85;71.49
26865;BME280;40618;51.166;10.322;2023-07-31T02:58:38;96950.03;;;14.84;71.86
26865;BME280;40618;51.166;10.322;2023-07-31T03:01:04;96945.97;;;14.79;71.86
26865;BME280;40618;51.166;10.322;2023-07-31T03:03:29;96949.53;;;14.78;71.75
26865;BME280;40618;51.166;10.322;2023-07-31T03:05:55;96949.44;;;14.79;72.00
26865;BME280;40618;51.166;10.322;2023-07-31T03:08:21;96950.28;;;14.80;71.93
26865;BME280;40618;51.166;10.322;2023-07-31T03:10:46;96947.94;;;14.75;71.78
26865;BME280;40618;51.166;10.322;2023-07-31T03:13:12;96956.50;;;14.77;72.02
26865;BME280;40618;51.166;10.322;2023-07-31T03:15:37;96947.06;;;14.75;72.26
26865;BME280;40618;51.166;10.322;2023-07-31T03:18:03;96954.47;;;14.66;71.89
26865;BME280;40618;51.166;10.322;2023-07-31T03:20:28;96941.53;;;14.65;72.37
26865;BME280;40618;51.166;10.322;2023-07-31T03:22:54;96932.16;;;14.61;72.28
26865;BME280;40618;51.166;10.322;2023-07-31T03:25:19;96935.69;;;14.60;72.22
26865;BME280;40618;51.166;10.322;2023-07-31T03:27:45;96939.25;;;14.59;72.61
26865;BME280;40618;51.166;10.322;2023-07-31T03:30:11;96940.91;;;14.60;72.58
26865;BME280;40618;51.166;10.322;2023-07-31T03:32:36;96942.59;;;14.61;72.44
26865;BME280;40618;51.166;10.322;2023-07-31T03:35:02;96942.00;;;14.55;72.53
26865;BME280;40618;51.166;10.322;2023-07-31T03:37:28;96936.72;;;14.57;72.64
26865;BME280;40618;51.166;10.322;2023-07-31T03:39:54;96939.38;;;14.55;72.87
26865;BME280;40618;51.166;10.322;2023-07-31T03:42:19;96937.66;;;14.56;72.91
26865;BME280;40618;51.166;10.322;2023-07-31T03:44:45;96945.28;;;14.59;73.19
26865;BME280;40618;51.166;10.322;2023-07-31T03:47:11;96928.81;;;14.59;73.01
26865;BME280;40618;51.166;10.322;2023-07-31T03:49:36;96930.66;;;14.56;73.19
26865;BME280;40618;51.166;10.322;2023-07-31T03:52:02;96928.06;;;14.56;73.21
26865;BME280;40618;51.166;10.322;2023-07-31T03:54:28;96933.25;;;14.56;72.88
26865;BME280;40618;51.166;10.322;2023-07-31T03:56:53;96928.13;;;14.55;73.10
26865;BME280;40618;51.166;10.322;2023-07-31T03:59:19;96930.84;;;14.53;73.17
26865;BME280;40618;51.166;10.322;2023-07-31T04:01:44;96932.53;;;14.54;73.37
26865;BME280;40618;51.166;10.322;2023-07-31T04:04:10;96935.13;;;14.54;73.47
26865;BME280;40618;51.166;10.322;2023-07-31T04:06:35;96930.91;;;14.52;73.62
26865;BME280;40618;51.166;10.322;2023-07-31T04:09:02;96931.00;;;14.50;73.54
26865;BME280;40618;51.166;10.322;2023-07-31T04:11:28;96925.03;;;14.48;73.33
26865;BME280;40618;51.166;10.322;2023-07-31T04:13:53;96939.75;;;14.49;73.57
26865;BME280;40618;51.166;10.322;2023-07-31T04:16:19;96933.44;;;14.53;73.53
26865;BME280;40618;51.166;10.322;2023-07-31T04:18:44;96941.06;;;14.56;73.87
26865;BME280;40618;51.166;10.322;2023-07-31T04:21:10;96939.38;;;14.55;73.70
26865;BME280;40618;51.166;10.322;2023-07-31T04:23:36;96930.00;;;14.53;74.14
26865;BME280;40618;51.166;10.322;2023-07-31T04:26:01;96932.66;;;14.51;74.11
26865;BME280;40618;51.166;10.322;2023-07-31T04:28:27;96930.00;;;14.53;74.00
26865;BME280;40618;51.166;10.322;2023-07-31T04:30:52;96922.94;;;14.55;74.18
26865;BME280;40618;51.166;10.322;2023-07-31T04:33:18;96924.44;;;14.59;74.14
26865;BME280;40618;51.166;10.322;2023-07-31T04:35:51;96928.81;;;14.59;74.09
26865;BME280;40618;51.166;10.322;2023-07-31T04:38:19;96912.41;;;14.56;73.69
26865;BME280;40618;51.166;10.322;2023-07-31T04:40:46;96909.81;;;14.56;73.97
26865;BME280;40618;51.166;10.322;2023-07-31T04:43:12;96918.22;;;14.62;73.93
26865;BME280;40618;51.166;10.322;2023-07-31T04:45:38;96919.94;;;14.63;74.28
26865;BME280;40618;51.166;10.322;2023-07-31T04:48:04;96916.38;;;14.64;74.39
26865;BME280;40618;51.166;10.322;2023-07-31T04:50:30;96910.25;;;14.65;74.33
26865;BME280;40618;51.166;10.322;2023-07-31T04:52:56;96918.94;;;14.65;74.05
26865;BME280;40618;51.166;10.322;2023-07-31T04:55:22;96919.69;;;14.67;74.39
26865;BME280;40618;51.166;10.322;2023-07-31T04:57:47;96919.59;;;14.69;74.11
26865;BME280;40618;51.166;10.322;2023-07-31T05:00:13;96922.09;;;14.70;74.28
26865;BME280;40618;51.166;10.322;2023-07-31T05:02:39;96920.50;;;14.68;74.00
26865;BME280;40618;51.166;10.322;2023-07-31T05:05:04;96927.50;;;14.67;74.51
26865;BME280;40618;51.166;10.322;2023-07-31T05:07:30;96923.13;;;14.68;74.60
26865;BME280;40618;51.166;10.322;2023-07-31T05:09:56;96929.00;;;14.71;74.27
26865;BME280;40618;51.166;10.322;2023-07-31T05:12:21;96921.09;;;14.73;74.55
26865;BME280;40618;51.166;10.322;2023-07-31T05:14:47;96921.00;;;14.75;74.33
26865;BME280;40618;51.166;10.322;2023-07-31T05:17:13;96921.69;;;14.78;74.24
26865;BME280;40618;51.166;10.322;2023-07-31T05:19:38;96920.78;;;14.79;74.22
26865;BME280;40618;51.166;10.322;2023-07-31T05:22:04;96922.28;;;14.83;74.47
26865;BME280;40618;51.166;10.322;2023-07-31T05:24:30;96923.03;;;14.85;74.68
26865;BME280;40618;51.166;10.322;2023-07-31T05:26:55;96916.91;;;14.86;74.39
26865;BME280;40618;51.166;10.322;2023-07-31T05:29:21;96923.78;;;14.87;74.61
26865;BME280;40618;51.166;10.322;2023-07-31T05:31:46;96922.88;;;14.88;74.83
26865;BME280;40618;51.166;10.322;2023-07-31T05:34:12;96927.31;;;14.86;74.60
26865;BME280;40618;51.166;10.322;2023-07-31T05:36:37;96923.03;;;14.85;74.94
26865;BME280;40618;51.166;10.322;2023-07-31T05:39:03;96923.22;;;14.82;74.55
26865;BME280;40618;51.166;10.322;2023-07-31T05:41:32;96925.72;;;14.84;74.59
26865;BME280;40618;51.166;10.322;2023-07-31T05:43:57;96921.28;;;14.86;74.80
26865;BME280;40618;51.166;10.322;2023-07-31T05:46:23;96913.38;;;14.87;74.98
26865;BME280;40618;51.166;10.322;2023-07-31T05:48:48;96914.19;;;14.88;74.85
26865;BME280;40618;51.166;10.322;2023-07-31T05:51:14;96925.47;;;14.88;74.89
26865;BME280;40618;51.166;10.322;2023-07-31T05:53:40;96922.03;;;14.88;74.99
26865;BME280;40618;51.166;10.322;2023-07-31T05:56:06;96918.50;;;14.89;75.05
26865;BME280;40618;51.166;10.322;2023-07-31T05:58:31;96915.78;;;14.91;74.77
26865;BME280;40618;51.166;10.322;2023-07-31T06:00:57;96915.63;;;14.94;75.19
26865;BME280;40618;51.166;10.322;2023-07-31T06:03:23;96906.97;;;14.93;74.78
26865;BME280;40618;51.166;10.322;2023-07-31T06:05:48;96913.88;;;14.94;75.14
26865;BME280;40618;51.166;10.322;2023-07-31T06:08:14;96917.31;;;14.95;75.16
26865;BME280;40618;51.166;10.322;2023-07-31T06:10:39;96915.47;;;14.97;75.30
26865;BME280;40618;51.166;10.322;2023-07-31T06:13:05;96918.81;;;14.99;74.88
26865;BME280;40618;51.166;10.322;2023-07-31T06:15:30;96913.59;;;14.99;74.93
26865;BME280;40618;51.166;10.322;2023-07-31T06:17:56;96916.19;;;14.99;75.10
26865;BME280;40618;51.166;10.322;2023-07-31T06:20:22;96919.72;;;14.98;74.89
26865;BME280;40618;51.166;10.322;2023-07-31T06:22:48;96925.13;;;14.95;75.35
26865;BME280;40618;51.166;10.322;2023-07-31T06:25:13;96916.38;;;14.96;75.55
26865;BME280;40618;51.166;10.322;2023-07-31T06:27:39;96926.72;;;14.97;75.57
26865;BME280;40618;51.166;10.322;2023-07-31T06:30:05;96919.72;;;14.98;75.35
26865;BME280;40618;51.166;10.322;2023-07-31T06:32:32;96923.09;;;15.00;75.54
26865;BME280;40618;51.166;10.322;2023-07-31T06:34:57;96931.84;;;14.99;75.46
26865;BME280;40618;51.166;10.322;2023-07-31T06:37:23;96933.63;;;14.98;75.69
26865;BME280;40618;51.166;10.322;2023-07-31T06:39:48;96927.47;;;14.99;75.55
26865;BME280;40618;51.166;10.322;2023-07-31T06:42:14;96930.00;;;15.01;75.10
26865;BME280;40618;51.166;10.322;2023-07-31T06:44:39;96930.75;;;15.03;75.25
26865;BME280;40618;51.166;10.322;2023-07-31T06:47:05;96926.63;;;14.99;75.23
26865;BME280;40618;51.166;10.322;2023-07-31T06:49:31;96932.69;;;14.99;75.22
26865;BME280;40618;51.166;10.322;2023-07-31T06:51:56;96922.44;;;14.96;75.82
26865;BME280;40618;51.166;10.322;2023-07-31T06:54:22;96921.59;;;14.96;75.69
26865;BME280;40618;51.166;10.322;2023-07-31T06:56:47;96915.72;;;14.92;76.07
26865;BME280;40618;51.166;10.322;2023-07-31T06:59:13;96917.47;;;14.92;75.74
26865;BME280;40618;51.166;10.322;2023-07-31T07:01:38;96918.41;;;14.91;75.82
26865;BME280;40618;51.166;10.322;2023-07-31T07:04:04;96915.72;;;14.92;75.97
26865;BME280;40618;51.166;10.322;2023-07-31T07:06:29;96909.66;;;14.92;75.65
26865;BME280;40618;51.166;10.322;2023-07-31T07:08:55;96918.31;;;14.92;75.93
26865;BME280;40618;51.166;10.322;2023-07-31T07:11:20;96917.56;;;14.90;76.35
26865;BME280;40618;51.166;10.322;2023-07-31T07:13:46;96912.34;;;14.90;76.30
26865;BME280;40618;51.166;10.322;2023-07-31T07:16:12;96907.78;;;14.94;76.33
26865;BME280;40618;51.166;10.322;2023-07-31T07:18:37;96905.03;;;14.97;76.51
26865;BME280;40618;51.166;10.322;2023-07-31T07:21:03;96909.16;;;15.01;76.41
26865;BME280;40618;51.166;10.322;2023-07-31T07:23:28;96909.78;;;15.04;76.08
26865;BME280;40618;51.166;10.322;2023-07-31T07:25:54;96915.69;;;15.08;76.18
26865;BME280;40618;51.166;10.322;2023-07-31T07:28:19;96902.38;;;15.13;76.11
26865;BME280;40618;51.166;10.322;2023-07-31T07:30:51;96905.66;;;15.16;76.33
26865;BME280;40618;51.166;10.322;2023-07-31T07:33:20;96908.19;;;15.18;76.29
26865;BME280;40618;51.166;10.322;2023-07-31T07:35:45;96903.63;;;15.21;76.50
26865;BME280;40618;51.166;10.322;2023-07-31T07:38:11;96911.38;;;15.23;76.29
26865;BME280;40618;51.166;10.322;2023-07-31T07:40:39;96907.75;;;15.26;76.03
26865;BME280;40618;51.166;10.322;2023-07-31T07:43:05;96917.16;;;15.28;75.87
26865;BME280;40618;51.166;10.322;2023-07-31T07:45:31;96912.69;;;15.30;76.20
26865;BME280;40618;51.166;10.322;2023-07-31T07:47:56;96906.97;;;15.23;75.81
26865;BME280;40618;51.166;10.322;2023-07-31T07:50:23;96909.63;;;15.07;76.51
26865;BME280;40618;51.166;10.322;2023-07-31T07:52:48;96915.63;;;14.94;76.77
26865;BME280;40618;51.166;10.322;2023-07-31T07:55:14;96912.69;;;14.84;77.16
26865;BME280;40618;51.166;10.322;2023-07-31T07:57:39;96906.78;;;14.80;77.34
26865;BME280;40618;51.166;10.322;2023-07-31T08:00:06;96912.00;;;14.80;77.43
26865;BME280;40618;51.166;10.322;2023-07-31T08:02:32;96903.94;;;14.85;77.54
26865;BME280;40618;51.166;10.322;2023-07-31T08:04:57;96907.25;;;14.88;77.74
26865;BME280;40618;51.166;10.322;2023-07-31T08:07:23;96908.66;;;14.94;77.69
26865;BME280;40618;51.166;10.322;2023-07-31T08:09:48;96908.38;;;14.99;77.68
26865;BME280;40618;51.166;10.322;2023-07-31T08:12:14;96904.59;;;15.04;77.87
26865;BME280;40618;51.166;10.322;2023-07-31T08:14:39;96910.28;;;15.11;77.73
26865;BME280;40618;51.166;10.322;2023-07-31T08:17:05;96903.06;;;15.16;77.83
26865;BME280;40618;51.166;10.322;2023-07-31T08:19:30;96903.44;;;15.25;78.08
26865;BME280;40618;51.166;10.322;2023-07-31T08:21:56;96900.31;;;15.34;78.27
26865;BME280;40618;51.166;10.322;2023-07-31T08:24:22;96898.91;;;15.43;77.96
26865;BME280;40618;51.166;10.322;2023-07-31T08:26:47;96890.66;;;15.50;78.15
26865;BME280;40618;51.166;10.322;2023-07-31T08:29:13;96886.94;;;15.54;77.93
26865;BME280;40618;51.166;10.322;2023-07-31T08:31:39;96889.34;;;15.57;78.01
26865;BME280;40618;51.166;10.322;2023-07-31T08:34:04;96886.47;;;15.62;77.92
26865;BME280;40618;51.166;10.322;2023-07-31T08:36:30;96878.56;;;15.64;77.67
26865;BME280;40618;51.166;10.322;2023-07-31T08:38:55;96887.31;;;15.63;77.56
26865;BME280;40618;51.166;10.322;2023-07-31T08:41:21;96880.41;;;15.62;78.01
26865;BME280;40618;51.166;10.322;2023-07-31T08:43:47;96880.22;;;15.65;77.81
26865;BME280;40618;51.166;10.322;2023-07-31T08:46:14;96862.63;;;15.68;77.75
26865;BME280;40618;51.166;10.322;2023-07-31T08:48:42;96874.47;;;15.74;77.63
26865;BME280;40618;51.166;10.322;2023-07-31T08:51:09;96873.34;;;15.78;77.84
26865;BME280;40618;51.166;10.322;2023-07-31T08:53:35;96873.19;;;15.81;77.48
26865;BME280;40618;51.166;10.322;2023-07-31T08:56:01;96859.00;;;15.85;77.63
26865;BME280;40618;51.166;10.322;2023-07-31T08:58:31;96878.88;;;15.88;77.52
26865;BME280;40618;51.166;10.322;2023-07-31T09:00:59;96868.16;;;15.93;77.37
26865;BME280;40618;51.166;10.322;2023-07-31T09:03:34;96878.50;;;15.94;77.44
26865;BME280;40618;51.166;10.322;2023-07-31T09:06:02;96866.19;;;15.96;77.65
26865;BME280;40618;51.166;10.322;2023-07-31T09:08:30;96876.53;;;15.98;77.68
26865;BME280;40618;51.166;10.322;2023-07-31T09:11:00;96873.91;;;15.98;77.33
26865;BME280;40618;51.166;10.322;2023-07-31T09:13:29;96866.09;;;15.98;77.18
26865;BME280;40618;51.166;10.322;2023-07-31T09:15:55;96871.41;;;15.96;77.43
26865;BME280;40618;51.166;10.322;2023-07-31T09:18:21;96874.03;;;15.96;76.91
26865;BME280;40618;51.166;10.322;2023-07-31T09:21:06;96879.16;;;15.98;77.24
26865;BME280;40618;51.166;10.322;2023-07-31T09:23:46;96872.06;;;16.00;77.38
26865;BME280;40618;51.166;10.322;2023-07-31T09:26:36;96878.13;;;16.00;77.01
26865;BME280;40618;51.166;10.322;2023-07-31T09:29:06;96872.78;;;16.02;77.11
26865;BME280;40618;51.166;10.322;2023-07-31T09:31:43;96868.25;;;16.05;77.19
26865;BME280;40618;51.166;10.322;2023-07-31T09:34:10;96864.50;;;16.10;76.70
26865;BME280;40618;51.166;10.322;2023-07-31T09:36:45;96869.25;;;16.17;77.09
26865;BME280;40618;51.166;10.322;2023-07-31T09:39:12;96867.00;;;16.26;77.03
26865;BME280;40618;51.166;10.322;2023-07-31T09:41:39;96874.28;;;16.35;76.71
26865;BME280;40618;51.166;10.322;2023-07-31T09:44:06;96878.91;;;16.44;76.74
26865;BME280;40618;51.166;10.322;2023-07-31T09:46:35;96873.16;;;16.39;76.42
26865;BME280;40618;51.166;10.322;2023-07-31T09:49:12;96876.03;;;16.34;76.58
26865;BME280;40618;51.166;10.322;2023-07-31T09:51:41;96876.88;;;16.35;76.80
26865;BME280;40618;51.166;10.322;2023-07-31T09:54:14;96866.34;;;16.36;77.09
26865;BME280;40618;51.166;10.322;2023-07-31T09:56:46;96879.19;;;16.39;76.69
26865;BME280;40618;51.166;10.322;2023-07-31T09:59:18;96874.91;;;16.38;76.71
26865;BME280;40618;51.166;10.322;2023-07-31T10:01:45;96874.19;;;16.36;76.80
26865;BME280;40618;51.166;10.322;2023-07-31T10:04:12;96865.47;;;16.36;76.81
26865;BME280;40618;51.166;10.322;2023-07-31T10:06:40;96866.25;;;16.38;76.66
26865;BME280;40618;51.166;10.322;2023-07-31T10:09:11;96854.09;;;16.37;76.58
26865;BME280;40618;51.166;10.322;2023-07-31T10:11:45;96848.06;;;16.36;76.53
26865;BME280;40618;51.166;10.322;2023-07-31T10:14:18;96855.88;;;16.36;76.23
26865;BME280;40618;51.166;10.322;2023-07-31T10:16:45;96856.50;;;16.40;76.19
26865;BME280;40618;51.166;10.322;2023-07-31T10:19:11;96846.16;;;16.38;76.15
26865;BME280;40618;51.166;10.322;2023-07-31T10:21:37;96860.34;;;16.34;76.01
26865;BME280;40618;51.166;10.322;2023-07-31T10:24:04;96848.72;;;16.11;75.97
26865;BME280;40618;51.166;10.322;2023-07-31T10:26:32;96842.88;;;15.93;76.32
26865;BME280;40618;51.166;10.322;2023-07-31T10:29:00;96831.06;;;15.87;76.58
26865;BME280;40618;51.166;10.322;2023-07-31T10:31:28;96838.59;;;15.92;77.19
26865;BME280;40618;51.166;10.322;2023-07-31T10:33:55;96827.47;;;16.03;77.04
26865;BME280;40618;51.166;10.322;2023-07-31T10:36:22;96827.47;;;16.17;77.41
26865;BME280;40618;51.166;10.322;2023-07-31T10:38:51;96827.41;;;16.32;77.37
26865;BME280;40618;51.166;10.322;2023-07-31T10:41:17;96835.59;;;16.54;77.48
26865;BME280;40618;51.166;10.322;2023-07-31T10:43:43;96828.44;;;16.71;77.41
26865;BME280;40618;51.166;10.322;2023-07-31T10:46:12;96816.72;;;16.77;77.13
26865;BME280;40618;51.166;10.322;2023-07-31T10:48:40;96818.41;;;16.78;77.02
26865;BME280;40618;51.166;10.322;2023-07-31T10:51:15;96811.94;;;16.83;77.22
26865;BME280;40618;51.166;10.322;2023-07-31T10:53:43;96810.63;;;16.90;77.48
26865;BME280;40618;51.166;10.322;2023-07-31T10:56:09;96796.41;;;16.95;77.45
26865;BME280;40618;51.166;10.322;2023-07-31T10:58:43;96806.16;;;17.05;77.39
26865;BME280;40618;51.166;10.322;2023-07-31T11:01:10;96804.47;;;17.04;76.79
26865;BME280;40618;51.166;10.322;2023-07-31T11:03:46;96813.13;;;16.92;77.24
26865;BME280;40618;51.166;10.322;2023-07-31T11:06:15;96807.03;;;16.79;76.82
26865;BME280;40618;51.166;10.322;2023-07-31T11:08:43;96813.47;;;16.73;76.91
26865;BME280;40618;51.166;10.322;2023-07-31T11:11:15;96804.91;;;16.71;77.31
26865;BME280;40618;51.166;10.322;2023-07-31T11:16:23;96802.50;;;16.95;77.75
26865;BME280;40618;51.166;10.322;2023-07-31T11:18:51;96806.25;;;17.04;77.29
26865;BME280;40618;51.166;10.322;2023-07-31T11:21:23;96795.59;;;17.07;76.96
26865;BME280;40618;51.166;10.322;2023-07-31T11:23:53;96789.97;;;17.13;77.07
26865;BME280;40618;51.166;10.322;2023-07-31T11:26:23;96792.56;;;17.26;77.16
26865;BME280;40618;51.166;10.322;2023-07-31T11:28:50;96802.00;;;17.29;76.84
26865;BME280;40618;51.166;10.322;2023-07-31T11:31:16;96778.22;;;17.32;76.93
26865;BME280;40618;51.166;10.322;2023-07-31T11:33:43;96795.72;;;17.31;76.88
26865;BME280;40618;51.166;10.322;2023-07-31T11:36:19;96794.34;;;17.25;76.16
26865;BME280;40618;51.166;10.322;2023-07-31T11:38:46;96792.13;;;17.19;76.27
26865;BME280;40618;51.166;10.322;2023-07-31T11:41:14;96783.69;;;17.16;76.38
26865;BME280;40618;51.166;10.322;2023-07-31T11:43:43;96782.31;;;17.10;76.20
26865;BME280;40618;51.166;10.322;2023-07-31T11:46:10;96776.34;;;17.08;76.30
26865;BME280;40618;51.166;10.322;2023-07-31T11:48:37;96755.75;;;17.03;76.12
26865;BME280;40618;51.166;10.322;2023-07-31T11:51:05;96764.84;;;16.98;76.23
26865;BME280;40618;51.166;10.322;2023-07-31T11:53:40;96762.22;;;16.98;76.43
26865;BME280;40618;51.166;10.322;2023-07-31T11:56:10;96753.94;;;17.04;76.36
26865;BME280;40618;51.166;10.322;2023-07-31T11:58:39;96756.25;;;17.21;76.49
26865;BME280;40618;51.166;10.322;2023-07-31T12:01:06;96733.44;;;17.36;76.28
26865;BME280;40618;51.166;10.322;2023-07-31T12:03:33;96752.91;;;17.45;76.08
26865;BME280;40618;51.166;10.322;2023-07-31T12:06:00;96734.28;;;17.50;75.56
26865;BME280;40618;51.166;10.322;2023-07-31T12:08:26;96744.41;;;17.54;75.51
26865;BME280;40618;51.166;10.322;2023-07-31T12:10:53;96747.84;;;17.55;75.35
26865;BME280;40618;51.166;10.322;2023-07-31T12:13:25;96742.44;;;17.58;75.12
26865;BME280;40618;51.166;10.322;2023-07-31T12:15:56;96745.75;;;17.60;74.91
26865;BME280;40618;51.166;10.322;2023-07-31T12:18:24;96751.75;;;17.62;75.07
26865;BME280;40618;51.166;10.322;2023-07-31T12:20:55;96747.22;;;17.64;74.63
26865;BME280;40618;51.166;10.322;2023-07-31T12:23:31;96751.09;;;17.58;74.65
26865;BME280;40618;51.166;10.322;2023-07-31T12:26:24;96753.09;;;17.55;74.66
26865;BME280;40618;51.166;10.322;2023-07-31T12:28:59;96751.56;;;17.52;74.44
26865;BME280;40618;51.166;10.322;2023-07-31T12:31:27;96745.56;;;17.50;74.29
26865;BME280;40618;51.166;10.322;2023-07-31T12:33:55;96748.53;;;17.46;74.39
26865;BME280;40618;51.166;10.322;2023-07-31T12:36:23;96745.97;;;17.44;74.07
26865;BME280;40618;51.166;10.322;2023-07-31T12:38:50;96746.41;;;17.38;74.00
26865;BME280;40618;51.166;10.322;2023-07-31T12:41:17;96736.38;;;17.32;73.79
26865;BME280;40618;51.166;10.322;2023-07-31T12:43:44;96734.50;;;17.34;73.94
26865;BME280;40618;51.166;10.322;2023-07-31T12:46:10;96728.22;;;17.36;74.03
26865;BME280;40618;51.166;10.322;2023-07-31T12:48:40;96732.06;;;17.43;74.04
26865;BME280;40618;51.166;10.322;2023-07-31T12:51:06;96727.13;;;17.52;73.97
26865;BME280;40618;51.166;10.322;2023-07-31T12:53:32;96734.47;;;17.59;73.95
26865;BME280;40618;51.166;10.322;2023-07-31T12:55:58;96726.50;;;17.61;73.76
26865;BME280;40618;51.166;10.322;2023-07-31T12:58:24;96724.59;;;17.63;73.77
26865;BME280;40618;51.166;10.322;2023-07-31T13:00:50;96719.28;;;17.65;73.51
26865;BME280;40618;51.166;10.322;2023-07-31T13:03:16;96720.09;;;17.65;73.46